sensor_id;sensor_type;location;lat;lon;timestamp;pressure;altitude;pressure_sealevel;temperature;humidity
54936;BME280;40838;50.676;7.838;2023-01-29T00:01:51;99581.47;;;-3.28;91.03
54936;BME280;40838;50.676;7.838;2023-01-29T00:04:27;99569.06;;;-3.34;90.78
54936;BME280;40838;50.676;7.838;2023-01-29T00:06:54;99571.44;;;-3.48;90.98
54936;BME280;40838;50.676;7.838;2023-01-29T00:09:27;99570.91;;;-3.52;92.25
54936;BME280;40838;50.676;7.838;2023-01-29T00:11:56;99573.75;;;-3.71;93.61
54936;BME280;40838;50.676;7.838;2023-01-29T00:14:26;99571.84;;;-3.87;94.76
54936;BME280;40838;50.676;7.838;2023-01-29T00:16:53;99561.97;;;-4.28;97.79
54936;BME280;40838;50.676;7.838;2023-01-29T00:19:20;99568.19;;;-3.77;94.58
54936;BME280;40838;50.676;7.838;2023-01-29T00:21:48;99563.53;;;-3.65;92.91
54936;BME280;40838;50.676;7.838;2023-01-29T00:24:15;99559.41;;;-3.76;92.37
54936;BME280;40838;50.676;7.838;2023-01-29T00:26:42;99555.59;;;-3.89;93.27
54936;BME280;40838;50.676;7.838;2023-01-29T00:29:09;99550.38;;;-4.15;95.22
54936;BME280;40838;50.676;7.838;2023-01-29T00:31:42;99560.31;;;-3.85;94.45
54936;BME280;40838;50.676;7.838;2023-01-29T00:34:11;99550.97;;;-3.96;92.90
54936;BME280;40838;50.676;7.838;2023-01-29T00:36:39;99548.03;;;-4.01;93.68
54936;BME280;40838;50.676;7.838;2023-01-29T00:39:07;99558.53;;;-3.84;92.98
54936;BME280;40838;50.676;7.838;2023-01-29T00:41:36;99548.69;;;-3.99;93.48
54936;BME280;40838;50.676;7.838;2023-01-29T00:44:21;99537.63;;;-4.01;93.08
54936;BME280;40838;50.676;7.838;2023-01-29T00:47:14;99535.91;;;-3.84;92.22
54936;BME280;40838;50.676;7.838;2023-01-29T00:49:58;99531.75;;;-4.03;93.14
54936;BME280;40838;50.676;7.838;2023-01-29T00:52:26;99529.81;;;-4.01;92.91
54936;BME280;40838;50.676;7.838;2023-01-29T00:54:54;99526.53;;;-4.47;97.06
54936;BME280;40838;50.676;7.838;2023-01-29T00:57:23;99521.66;;;-5.31;100.00
54936;BME280;40838;50.676;7.838;2023-01-29T00:59:52;99516.19;;;-5.10;100.00
54936;BME280;40838;50.676;7.838;2023-01-29T01:02:21;99511.97;;;-4.57;98.39
54936;BME280;40838;50.676;7.838;2023-01-29T01:05:07;99511.31;;;-4.59;99.55
54936;BME280;40838;50.676;7.838;2023-01-29T01:07:38;99514.16;;;-4.71;99.21
54936;BME280;40838;50.676;7.838;2023-01-29T01:10:15;99509.31;;;-4.83;99.84
54936;BME280;40838;50.676;7.838;2023-01-29T01:12:48;99513.88;;;-5.59;100.00
54936;BME280;40838;50.676;7.838;2023-01-29T01:15:17;99505.84;;;-4.74;99.60
54936;BME280;40838;50.676;7.838;2023-01-29T01:17:53;99513.38;;;-4.45;98.31
54936;BME280;40838;50.676;7.838;2023-01-29T01:20:20;99519.31;;;-5.06;99.84
54936;BME280;40838;50.676;7.838;2023-01-29T01:22:47;99517.34;;;-4.95;100.00
54936;BME280;40838;50.676;7.838;2023-01-29T01:25:15;99523.09;;;-5.01;100.00
54936;BME280;40838;50.676;7.838;2023-01-29T01:27:44;99510.22;;;-5.38;100.00
54936;BME280;40838;50.676;7.838;2023-01-29T01:30:12;99514.38;;;-5.00;100.00
54936;BME280;40838;50.676;7.838;2023-01-29T01:32:41;99523.56;;;-5.05;100.00
54936;BME280;40838;50.676;7.838;2023-01-29T01:35:13;99520.38;;;-4.81;98.67
54936;BME280;40838;50.676;7.838;2023-01-29T01:37:40;99520.22;;;-4.98;98.44
54936;BME280;40838;50.676;7.838;2023-01-29T01:40:15;99512.88;;;-4.67;96.60
54936;BME280;40838;50.676;7.838;2023-01-29T01:42:43;99517.91;;;-5.01;98.20
54936;BME280;40838;50.676;7.838;2023-01-29T01:45:19;99519.94;;;-4.77;96.15
54936;BME280;40838;50.676;7.838;2023-01-29T01:47:49;99517.94;;;-4.83;97.79
54936;BME280;40838;50.676;7.838;2023-01-29T01:50:23;99516.16;;;-4.82;97.85
54936;BME280;40838;50.676;7.838;2023-01-29T01:52:55;99519.34;;;-4.71;94.92
54936;BME280;40838;50.676;7.838;2023-01-29T01:55:26;99522.56;;;-4.77;96.20
54936;BME280;40838;50.676;7.838;2023-01-29T01:57:59;99521.84;;;-4.43;92.41
54936;BME280;40838;50.676;7.838;2023-01-29T02:00:42;99527.44;;;-4.74;93.84
54936;BME280;40838;50.676;7.838;2023-01-29T02:03:23;99524.09;;;-4.66;93.40
54936;BME280;40838;50.676;7.838;2023-01-29T02:06:11;99539.25;;;-4.79;94.35
54936;BME280;40838;50.676;7.838;2023-01-29T02:08:59;99533.59;;;-4.75;95.81
54936;BME280;40838;50.676;7.838;2023-01-29T02:11:46;99533.38;;;-4.99;96.24
54936;BME280;40838;50.676;7.838;2023-01-29T02:14:16;99527.16;;;-4.89;95.20
54936;BME280;40838;50.676;7.838;2023-01-29T02:16:43;99519.94;;;-4.77;93.45
54936;BME280;40838;50.676;7.838;2023-01-29T02:19:15;99516.78;;;-5.16;96.03
54936;BME280;40838;50.676;7.838;2023-01-29T02:22:16;99526.41;;;-4.81;96.34
54936;BME280;40838;50.676;7.838;2023-01-29T02:25:03;99525.34;;;-5.61;99.87
54936;BME280;40838;50.676;7.838;2023-01-29T02:28:03;99518.03;;;-6.32;100.00
54936;BME280;40838;50.676;7.838;2023-01-29T02:30:40;99503.03;;;-6.48;100.00
54936;BME280;40838;50.676;7.838;2023-01-29T02:33:15;99513.00;;;-6.92;100.00
54936;BME280;40838;50.676;7.838;2023-01-29T02:35:55;99506.56;;;-6.20;100.00
54936;BME280;40838;50.676;7.838;2023-01-29T02:38:29;99507.53;;;-6.40;100.00
54936;BME280;40838;50.676;7.838;2023-01-29T02:41:01;99500.59;;;-5.56;100.00
54936;BME280;40838;50.676;7.838;2023-01-29T02:43:36;99495.69;;;-5.96;100.00
54936;BME280;40838;50.676;7.838;2023-01-29T02:46:11;99496.47;;;-6.33;100.00
54936;BME280;40838;50.676;7.838;2023-01-29T02:48:46;99485.13;;;-6.22;100.00
54936;BME280;40838;50.676;7.838;2023-01-29T02:51:18;99490.72;;;-6.17;100.00
54936;BME280;40838;50.676;7.838;2023-01-29T02:53:53;99495.63;;;-6.14;100.00
54936;BME280;40838;50.676;7.838;2023-01-29T02:56:29;99510.50;;;-4.96;100.00
54936;BME280;40838;50.676;7.838;2023-01-29T02:59:06;99502.44;;;-5.38;99.95
54936;BME280;40838;50.676;7.838;2023-01-29T03:01:37;99504.19;;;-6.04;100.00
54936;BME280;40838;50.676;7.838;2023-01-29T03:04:10;99494.75;;;-6.81;100.00
54936;BME280;40838;50.676;7.838;2023-01-29T03:06:42;99495.00;;;-6.64;100.00
54936;BME280;40838;50.676;7.838;2023-01-29T03:09:18;99486.69;;;-6.68;100.00
54936;BME280;40838;50.676;7.838;2023-01-29T03:11:50;99494.72;;;-5.85;100.00
54936;BME280;40838;50.676;7.838;2023-01-29T03:14:27;99509.47;;;-5.30;100.00
54936;BME280;40838;50.676;7.838;2023-01-29T03:17:19;99520.16;;;-5.34;98.38
54936;BME280;40838;50.676;7.838;2023-01-29T03:19:48;99513.78;;;-6.24;100.00
54936;BME280;40838;50.676;7.838;2023-01-29T03:22:20;99519.63;;;-6.02;100.00
54936;BME280;40838;50.676;7.838;2023-01-29T03:24:58;99517.78;;;-4.99;96.89
54936;BME280;40838;50.676;7.838;2023-01-29T03:27:49;99522.28;;;-5.47;98.97
54936;BME280;40838;50.676;7.838;2023-01-29T03:30:43;99526.38;;;-6.48;100.00
54936;BME280;40838;50.676;7.838;2023-01-29T03:33:45;99526.91;;;-5.41;98.15
54936;BME280;40838;50.676;7.838;2023-01-29T03:36:19;99519.03;;;-5.03;94.60
54936;BME280;40838;50.676;7.838;2023-01-29T03:38:47;99525.81;;;-5.38;95.59
54936;BME280;40838;50.676;7.838;2023-01-29T03:41:24;99520.91;;;-5.41;95.39
54936;BME280;40838;50.676;7.838;2023-01-29T03:44:01;99520.34;;;-5.72;98.60
54936;BME280;40838;50.676;7.838;2023-01-29T03:46:35;99533.50;;;-5.46;95.84
54936;BME280;40838;50.676;7.838;2023-01-29T03:49:10;99541.69;;;-5.41;95.64
54936;BME280;40838;50.676;7.838;2023-01-29T03:51:54;99547.16;;;-5.17;94.22
54936;BME280;40838;50.676;7.838;2023-01-29T03:54:25;99550.47;;;-5.24;93.74
54936;BME280;40838;50.676;7.838;2023-01-29T03:56:58;99558.09;;;-5.50;92.70
54936;BME280;40838;50.676;7.838;2023-01-29T03:59:35;99554.41;;;-5.48;93.80
54936;BME280;40838;50.676;7.838;2023-01-29T04:02:21;99542.56;;;-5.60;96.28
54936;BME280;40838;50.676;7.838;2023-01-29T04:04:57;99552.72;;;-5.39;95.39
54936;BME280;40838;50.676;7.838;2023-01-29T04:07:28;99530.31;;;-5.78;96.14
54936;BME280;40838;50.676;7.838;2023-01-29T04:10:04;99532.66;;;-6.51;100.00
54936;BME280;40838;50.676;7.838;2023-01-29T04:12:37;99527.03;;;-5.80;97.68
54936;BME280;40838;50.676;7.838;2023-01-29T04:15:10;99527.22;;;-5.53;95.14
54936;BME280;40838;50.676;7.838;2023-01-29T04:17:43;99526.94;;;-6.35;98.40
54936;BME280;40838;50.676;7.838;2023-01-29T04:20:29;99515.72;;;-6.35;99.71
54936;BME280;40838;50.676;7.838;2023-01-29T04:22:57;99504.94;;;-6.79;100.00
54936;BME280;40838;50.676;7.838;2023-01-29T04:25:28;99502.88;;;-7.15;100.00
54936;BME280;40838;50.676;7.838;2023-01-29T04:28:03;99512.94;;;-7.31;100.00
54936;BME280;40838;50.676;7.838;2023-01-29T04:30:40;99490.50;;;-6.92;100.00
54936;BME280;40838;50.676;7.838;2023-01-29T04:33:22;99486.41;;;-7.13;100.00
54936;BME280;40838;50.676;7.838;2023-01-29T04:36:02;99479.06;;;-7.58;100.00
54936;BME280;40838;50.676;7.838;2023-01-29T04:38:39;99484.91;;;-6.58;100.00
54936;BME280;40838;50.676;7.838;2023-01-29T04:41:13;99484.34;;;-5.95;100.00
54936;BME280;40838;50.676;7.838;2023-01-29T04:43:49;99484.50;;;-6.43;100.00
54936;BME280;40838;50.676;7.838;2023-01-29T04:46:44;99480.63;;;-6.20;100.00
54936;BME280;40838;50.676;7.838;2023-01-29T04:49:20;99487.75;;;-5.85;99.87
54936;BME280;40838;50.676;7.838;2023-01-29T04:51:57;99490.81;;;-5.71;98.09
54936;BME280;40838;50.676;7.838;2023-01-29T04:54:35;99490.78;;;-5.34;95.10
54936;BME280;40838;50.676;7.838;2023-01-29T04:57:09;99504.28;;;-5.30;93.96
54936;BME280;40838;50.676;7.838;2023-01-29T04:59:41;99500.91;;;-5.13;92.18
54936;BME280;40838;50.676;7.838;2023-01-29T05:02:11;99502.22;;;-5.55;91.85
54936;BME280;40838;50.676;7.838;2023-01-29T05:04:44;99508.53;;;-5.94;94.40
54936;BME280;40838;50.676;7.838;2023-01-29T05:07:13;99508.09;;;-5.52;93.40
54936;BME280;40838;50.676;7.838;2023-01-29T05:09:42;99501.91;;;-6.16;95.56
54936;BME280;40838;50.676;7.838;2023-01-29T05:12:13;99503.72;;;-6.36;97.41
54936;BME280;40838;50.676;7.838;2023-01-29T05:14:44;99503.97;;;-6.20;97.30
54936;BME280;40838;50.676;7.838;2023-01-29T05:17:15;99495.34;;;-5.73;93.46
54936;BME280;40838;50.676;7.838;2023-01-29T05:19:46;99494.31;;;-6.37;96.75
54936;BME280;40838;50.676;7.838;2023-01-29T05:22:15;99484.75;;;-6.37;96.94
54936;BME280;40838;50.676;7.838;2023-01-29T05:24:47;99483.31;;;-6.12;95.57
54936;BME280;40838;50.676;7.838;2023-01-29T05:27:19;99489.53;;;-6.52;97.86
54936;BME280;40838;50.676;7.838;2023-01-29T05:30:05;99492.19;;;-6.05;96.18
54936;BME280;40838;50.676;7.838;2023-01-29T05:32:32;99498.13;;;-5.94;95.07
54936;BME280;40838;50.676;7.838;2023-01-29T05:35:00;99504.94;;;-7.08;100.00
54936;BME280;40838;50.676;7.838;2023-01-29T05:37:28;99516.84;;;-6.57;99.69
54936;BME280;40838;50.676;7.838;2023-01-29T05:39:55;99506.59;;;-6.98;100.00
54936;BME280;40838;50.676;7.838;2023-01-29T05:42:21;99500.88;;;-6.82;99.05
54936;BME280;40838;50.676;7.838;2023-01-29T05:44:48;99499.78;;;-6.99;100.00
54936;BME280;40838;50.676;7.838;2023-01-29T05:47:17;99494.19;;;-6.84;100.00
54936;BME280;40838;50.676;7.838;2023-01-29T05:49:46;99489.00;;;-7.13;100.00
54936;BME280;40838;50.676;7.838;2023-01-29T05:52:14;99474.53;;;-7.16;100.00
54936;BME280;40838;50.676;7.838;2023-01-29T05:54:41;99472.31;;;-7.40;100.00
54936;BME280;40838;50.676;7.838;2023-01-29T05:57:09;99459.94;;;-6.98;100.00
54936;BME280;40838;50.676;7.838;2023-01-29T05:59:36;99452.31;;;-7.78;100.00
54936;BME280;40838;50.676;7.838;2023-01-29T06:02:03;99448.59;;;-7.95;100.00
54936;BME280;40838;50.676;7.838;2023-01-29T06:04:36;99447.03;;;-8.08;100.00
54936;BME280;40838;50.676;7.838;2023-01-29T06:07:03;99424.97;;;-7.71;100.00
54936;BME280;40838;50.676;7.838;2023-01-29T06:09:32;99427.66;;;-7.13;100.00
54936;BME280;40838;50.676;7.838;2023-01-29T06:11:58;99429.00;;;-7.09;100.00
54936;BME280;40838;50.676;7.838;2023-01-29T06:14:25;99425.44;;;-6.69;100.00
54936;BME280;40838;50.676;7.838;2023-01-29T06:16:57;99442.41;;;-6.28;99.63
54936;BME280;40838;50.676;7.838;2023-01-29T06:19:23;99462.91;;;-7.41;100.00
54936;BME280;40838;50.676;7.838;2023-01-29T06:21:50;99471.81;;;-6.85;100.00
54936;BME280;40838;50.676;7.838;2023-01-29T06:24:17;99470.19;;;-6.77;100.00
54936;BME280;40838;50.676;7.838;2023-01-29T06:26:46;99475.22;;;-7.14;100.00
54936;BME280;40838;50.676;7.838;2023-01-29T06:29:13;99473.72;;;-6.78;100.00
54936;BME280;40838;50.676;7.838;2023-01-29T06:31:40;99478.19;;;-5.84;96.58
54936;BME280;40838;50.676;7.838;2023-01-29T06:34:08;99480.69;;;-5.65;94.42
54936;BME280;40838;50.676;7.838;2023-01-29T06:36:35;99484.28;;;-5.48;90.99
54936;BME280;40838;50.676;7.838;2023-01-29T06:39:03;99485.97;;;-5.84;91.67
54936;BME280;40838;50.676;7.838;2023-01-29T06:41:32;99481.56;;;-6.11;93.65
54936;BME280;40838;50.676;7.838;2023-01-29T06:44:00;99477.00;;;-5.99;92.71
54936;BME280;40838;50.676;7.838;2023-01-29T06:46:27;99494.97;;;-6.45;95.90
54936;BME280;40838;50.676;7.838;2023-01-29T06:48:56;99499.38;;;-6.55;95.99
54936;BME280;40838;50.676;7.838;2023-01-29T06:51:23;99496.09;;;-6.77;96.85
54936;BME280;40838;50.676;7.838;2023-01-29T06:53:50;99490.91;;;-6.38;96.93
54936;BME280;40838;50.676;7.838;2023-01-29T06:56:19;99492.81;;;-6.50;96.56
54936;BME280;40838;50.676;7.838;2023-01-29T06:58:46;99498.19;;;-6.04;93.71
54936;BME280;40838;50.676;7.838;2023-01-29T07:01:14;99498.81;;;-6.88;96.58
54936;BME280;40838;50.676;7.838;2023-01-29T07:03:41;99502.75;;;-6.64;96.55
54936;BME280;40838;50.676;7.838;2023-01-29T07:06:08;99505.91;;;-6.32;95.14
54936;BME280;40838;50.676;7.838;2023-01-29T07:08:36;99519.38;;;-6.18;95.49
54936;BME280;40838;50.676;7.838;2023-01-29T07:11:04;99525.53;;;-5.72;91.77
54936;BME280;40838;50.676;7.838;2023-01-29T07:13:54;99521.78;;;-5.88;93.10
54936;BME280;40838;50.676;7.838;2023-01-29T07:16:22;99519.53;;;-5.83;94.14
54936;BME280;40838;50.676;7.838;2023-01-29T07:18:59;99526.53;;;-5.83;94.90
54936;BME280;40838;50.676;7.838;2023-01-29T07:21:26;99522.25;;;-5.74;94.96
54936;BME280;40838;50.676;7.838;2023-01-29T07:23:53;99524.66;;;-6.01;95.66
54936;BME280;40838;50.676;7.838;2023-01-29T07:26:23;99524.63;;;-7.46;100.00
54936;BME280;40838;50.676;7.838;2023-01-29T07:28:50;99524.47;;;-6.46;98.54
54936;BME280;40838;50.676;7.838;2023-01-29T07:31:22;99522.69;;;-6.26;98.90
54936;BME280;40838;50.676;7.838;2023-01-29T07:33:50;99525.78;;;-5.66;94.47
54936;BME280;40838;50.676;7.838;2023-01-29T07:36:20;99522.31;;;-5.84;94.99
54936;BME280;40838;50.676;7.838;2023-01-29T07:38:49;99520.78;;;-6.34;97.69
54936;BME280;40838;50.676;7.838;2023-01-29T07:41:16;99522.06;;;-5.63;95.48
54936;BME280;40838;50.676;7.838;2023-01-29T07:43:45;99526.38;;;-5.44;94.05
54936;BME280;40838;50.676;7.838;2023-01-29T07:46:13;99524.28;;;-5.68;94.04
54936;BME280;40838;50.676;7.838;2023-01-29T07:48:40;99530.03;;;-4.92;92.14
54936;BME280;40838;50.676;7.838;2023-01-29T07:51:09;99532.69;;;-4.66;90.52
54936;BME280;40838;50.676;7.838;2023-01-29T07:53:36;99535.19;;;-6.12;97.57
54936;BME280;40838;50.676;7.838;2023-01-29T07:56:05;99534.53;;;-6.92;100.00
54936;BME280;40838;50.676;7.838;2023-01-29T07:58:31;99533.88;;;-6.64;100.00
54936;BME280;40838;50.676;7.838;2023-01-29T08:00:59;99546.00;;;-6.36;100.00
54936;BME280;40838;50.676;7.838;2023-01-29T08:03:25;99546.44;;;-6.40;99.34
54936;BME280;40838;50.676;7.838;2023-01-29T08:05:52;99536.59;;;-6.85;100.00
54936;BME280;40838;50.676;7.838;2023-01-29T08:08:21;99538.59;;;-6.02;99.28
54936;BME280;40838;50.676;7.838;2023-01-29T08:10:50;99537.69;;;-6.88;100.00
54936;BME280;40838;50.676;7.838;2023-01-29T08:13:23;99539.47;;;-6.40;100.00
54936;BME280;40838;50.676;7.838;2023-01-29T08:16:00;99527.84;;;-5.42;96.52
54936;BME280;40838;50.676;7.838;2023-01-29T08:18:28;99520.88;;;-5.69;97.36
54936;BME280;40838;50.676;7.838;2023-01-29T08:21:03;99514.13;;;-5.89;97.99
54936;BME280;40838;50.676;7.838;2023-01-29T08:23:38;99524.78;;;-5.27;96.52
54936;BME280;40838;50.676;7.838;2023-01-29T08:26:13;99524.16;;;-5.12;94.79
54936;BME280;40838;50.676;7.838;2023-01-29T08:28:40;99512.31;;;-5.89;100.00
54936;BME280;40838;50.676;7.838;2023-01-29T08:31:13;99509.97;;;-5.72;100.00
54936;BME280;40838;50.676;7.838;2023-01-29T08:33:44;99512.78;;;-5.56;99.67
54936;BME280;40838;50.676;7.838;2023-01-29T08:36:16;99511.00;;;-5.10;98.45
54936;BME280;40838;50.676;7.838;2023-01-29T08:41:30;99508.03;;;-5.43;100.00
54936;BME280;40838;50.676;7.838;2023-01-29T08:44:18;99518.28;;;-5.14;98.37
54936;BME280;40838;50.676;7.838;2023-01-29T08:47:46;99522.50;;;-5.13;98.43
54936;BME280;40838;50.676;7.838;2023-01-29T08:54:13;99525.16;;;-3.55;93.01
54936;BME280;40838;50.676;7.838;2023-01-29T08:56:40;99539.97;;;-5.05;98.65
54936;BME280;40838;50.676;7.838;2023-01-29T08:59:10;99526.59;;;-5.65;100.00
54936;BME280;40838;50.676;7.838;2023-01-29T09:01:36;99523.56;;;-5.05;100.00
54936;BME280;40838;50.676;7.838;2023-01-29T09:04:03;99531.00;;;-4.39;97.92
54936;BME280;40838;50.676;7.838;2023-01-29T09:06:30;99548.31;;;-4.48;98.06
54936;BME280;40838;50.676;7.838;2023-01-29T09:08:57;99543.94;;;-5.28;100.00
54936;BME280;40838;50.676;7.838;2023-01-29T09:11:25;99533.50;;;-5.01;100.00
54936;BME280;40838;50.676;7.838;2023-01-29T09:13:52;99543.41;;;-4.69;98.13
54936;BME280;40838;50.676;7.838;2023-01-29T09:16:19;99545.09;;;-4.77;98.25
54936;BME280;40838;50.676;7.838;2023-01-29T09:18:52;99535.97;;;-4.99;100.00
54936;BME280;40838;50.676;7.838;2023-01-29T09:21:18;99532.59;;;-4.20;98.95
54936;BME280;40838;50.676;7.838;2023-01-29T09:23:45;99538.22;;;-3.46;94.52
54936;BME280;40838;50.676;7.838;2023-01-29T09:26:12;99536.81;;;-3.33;93.33
54936;BME280;40838;50.676;7.838;2023-01-29T09:28:43;99540.66;;;-3.02;93.82
54936;BME280;40838;50.676;7.838;2023-01-29T09:31:10;99529.97;;;-2.26;89.75
54936;BME280;40838;50.676;7.838;2023-01-29T09:33:37;99531.41;;;-1.99;87.95
54936;BME280;40838;50.676;7.838;2023-01-29T09:36:07;99523.16;;;-3.27;94.44
54936;BME280;40838;50.676;7.838;2023-01-29T09:38:33;99515.47;;;-3.28;97.21
54936;BME280;40838;50.676;7.838;2023-01-29T09:41:06;99510.22;;;-3.79;98.31
54936;BME280;40838;50.676;7.838;2023-01-29T09:43:48;99499.66;;;-3.77;98.78
54936;BME280;40838;50.676;7.838;2023-01-29T09:46:20;99492.81;;;-3.78;100.00
54936;BME280;40838;50.676;7.838;2023-01-29T09:48:51;99491.81;;;-2.60;95.20
54936;BME280;40838;50.676;7.838;2023-01-29T09:51:27;99489.47;;;-2.05;94.02
54936;BME280;40838;50.676;7.838;2023-01-29T09:54:03;99483.94;;;-3.09;97.28
54936;BME280;40838;50.676;7.838;2023-01-29T09:56:32;99471.81;;;-1.87;91.51
54936;BME280;40838;50.676;7.838;2023-01-29T09:59:00;99483.81;;;-2.74;95.52
54936;BME280;40838;50.676;7.838;2023-01-29T10:01:33;99478.06;;;-2.13;94.44
54936;BME280;40838;50.676;7.838;2023-01-29T10:04:40;99485.22;;;-1.98;93.31
54936;BME280;40838;50.676;7.838;2023-01-29T10:07:28;99478.59;;;-2.58;95.95
54936;BME280;40838;50.676;7.838;2023-01-29T10:10:04;99475.84;;;-2.56;96.52
54936;BME280;40838;50.676;7.838;2023-01-29T10:12:42;99472.66;;;-1.24;90.11
54936;BME280;40838;50.676;7.838;2023-01-29T10:15:27;99466.19;;;-2.64;96.83
54936;BME280;40838;50.676;7.838;2023-01-29T10:18:10;99460.25;;;-2.09;95.33
54936;BME280;40838;50.676;7.838;2023-01-29T10:20:50;99468.28;;;-2.27;94.13
54936;BME280;40838;50.676;7.838;2023-01-29T10:23:22;99466.69;;;-2.36;97.14
54936;BME280;40838;50.676;7.838;2023-01-29T10:25:51;99459.47;;;-2.18;96.49
54936;BME280;40838;50.676;7.838;2023-01-29T10:28:22;99458.19;;;-3.03;99.74
54936;BME280;40838;50.676;7.838;2023-01-29T10:30:56;99455.28;;;-2.76;98.27
54936;BME280;40838;50.676;7.838;2023-01-29T10:33:30;99459.69;;;-2.76;98.99
54936;BME280;40838;50.676;7.838;2023-01-29T10:36:02;99450.34;;;-1.66;94.07
54936;BME280;40838;50.676;7.838;2023-01-29T10:38:38;99449.50;;;-1.04;91.41
54936;BME280;40838;50.676;7.838;2023-01-29T10:41:26;99437.66;;;-1.85;93.24
54936;BME280;40838;50.676;7.838;2023-01-29T10:44:06;99434.81;;;-2.15;95.50
54936;BME280;40838;50.676;7.838;2023-01-29T10:46:51;99433.19;;;-2.16;96.43
54936;BME280;40838;50.676;7.838;2023-01-29T10:49:36;99435.69;;;-1.83;95.86
54936;BME280;40838;50.676;7.838;2023-01-29T10:52:17;99432.22;;;-2.15;96.26
54936;BME280;40838;50.676;7.838;2023-01-29T10:55:01;99431.75;;;-1.79;93.30
54936;BME280;40838;50.676;7.838;2023-01-29T10:57:51;99422.81;;;-1.23;91.91
54936;BME280;40838;50.676;7.838;2023-01-29T11:00:26;99413.03;;;-2.47;97.94
54936;BME280;40838;50.676;7.838;2023-01-29T11:03:07;99424.19;;;-1.66;94.94
54936;BME280;40838;50.676;7.838;2023-01-29T11:05:42;99420.84;;;-2.55;98.56
54936;BME280;40838;50.676;7.838;2023-01-29T11:08:17;99407.69;;;-0.89;92.14
54936;BME280;40838;50.676;7.838;2023-01-29T11:10:52;99406.91;;;-1.44;93.59
54936;BME280;40838;50.676;7.838;2023-01-29T11:13:31;99403.03;;;-0.79;89.29
54936;BME280;40838;50.676;7.838;2023-01-29T11:16:00;99388.81;;;-1.00;88.80
54936;BME280;40838;50.676;7.838;2023-01-29T11:18:47;99389.28;;;-0.28;89.89
54936;BME280;40838;50.676;7.838;2023-01-29T11:21:14;99398.16;;;-2.46;96.86
54936;BME280;40838;50.676;7.838;2023-01-29T11:23:41;99391.25;;;-2.15;98.99
54936;BME280;40838;50.676;7.838;2023-01-29T11:26:12;99386.06;;;-1.83;95.90
54936;BME280;40838;50.676;7.838;2023-01-29T11:28:44;99384.00;;;-1.11;92.45
54936;BME280;40838;50.676;7.838;2023-01-29T11:31:16;99383.03;;;-1.64;93.92
54936;BME280;40838;50.676;7.838;2023-01-29T11:34:03;99379.91;;;-2.38;98.94
54936;BME280;40838;50.676;7.838;2023-01-29T11:36:33;99369.06;;;-1.02;92.09
54936;BME280;40838;50.676;7.838;2023-01-29T11:39:13;99356.50;;;-1.76;93.80
54936;BME280;40838;50.676;7.838;2023-01-29T11:41:47;99362.75;;;-2.41;97.60
54936;BME280;40838;50.676;7.838;2023-01-29T11:44:19;99351.81;;;-1.11;92.54
54936;BME280;40838;50.676;7.838;2023-01-29T11:46:46;99347.84;;;-1.30;96.39
54936;BME280;40838;50.676;7.838;2023-01-29T11:49:23;99338.91;;;-1.59;94.54
54936;BME280;40838;50.676;7.838;2023-01-29T11:51:54;99337.25;;;-0.91;93.17
54936;BME280;40838;50.676;7.838;2023-01-29T11:54:24;99332.97;;;-2.07;98.16
54936;BME280;40838;50.676;7.838;2023-01-29T11:56:54;99311.66;;;-1.41;94.17
54936;BME280;40838;50.676;7.838;2023-01-29T11:59:29;99325.84;;;-1.36;94.12
54936;BME280;40838;50.676;7.838;2023-01-29T12:02:18;99311.78;;;-1.81;94.38
54936;BME280;40838;50.676;7.838;2023-01-29T12:04:48;99307.69;;;-1.52;96.12
54936;BME280;40838;50.676;7.838;2023-01-29T12:07:17;99301.03;;;-0.13;88.59
54936;BME280;40838;50.676;7.838;2023-01-29T12:09:52;99299.06;;;-2.15;97.25
54936;BME280;40838;50.676;7.838;2023-01-29T12:12:28;99291.03;;;-1.36;93.23
54936;BME280;40838;50.676;7.838;2023-01-29T12:15:20;99293.94;;;-0.93;89.82
54936;BME280;40838;50.676;7.838;2023-01-29T12:17:55;99285.59;;;-1.73;92.43
54936;BME280;40838;50.676;7.838;2023-01-29T12:20:29;99280.41;;;-2.04;98.66
54936;BME280;40838;50.676;7.838;2023-01-29T12:23:06;99271.75;;;-0.53;90.98
54936;BME280;40838;50.676;7.838;2023-01-29T12:25:43;99279.84;;;-1.07;87.78
54936;BME280;40838;50.676;7.838;2023-01-29T12:28:30;99264.72;;;-0.82;87.04
54936;BME280;40838;50.676;7.838;2023-01-29T12:31:13;99260.84;;;-1.39;89.82
54936;BME280;40838;50.676;7.838;2023-01-29T12:33:49;99260.78;;;-1.54;93.17
54936;BME280;40838;50.676;7.838;2023-01-29T12:36:24;99264.53;;;-1.33;91.16
54936;BME280;40838;50.676;7.838;2023-01-29T12:38:54;99266.44;;;-0.74;89.49
54936;BME280;40838;50.676;7.838;2023-01-29T12:41:29;99257.31;;;-1.08;87.32
54936;BME280;40838;50.676;7.838;2023-01-29T12:44:04;99244.97;;;-0.04;83.81
54936;BME280;40838;50.676;7.838;2023-01-29T12:46:36;99237.81;;;1.45;72.73
54936;BME280;40838;50.676;7.838;2023-01-29T12:49:11;99240.09;;;-0.73;86.00
54936;BME280;40838;50.676;7.838;2023-01-29T12:51:48;99243.91;;;-1.66;92.81
54936;BME280;40838;50.676;7.838;2023-01-29T12:54:22;99246.47;;;-0.46;83.83
54936;BME280;40838;50.676;7.838;2023-01-29T12:56:58;99251.53;;;0.07;82.08
54936;BME280;40838;50.676;7.838;2023-01-29T12:59:42;99240.31;;;0.13;82.14
54936;BME280;40838;50.676;7.838;2023-01-29T13:02:29;99238.19;;;1.42;72.22
54936;BME280;40838;50.676;7.838;2023-01-29T13:05:00;99238.88;;;1.16;72.80
54936;BME280;40838;50.676;7.838;2023-01-29T13:07:33;99227.94;;;2.15;68.16
54936;BME280;40838;50.676;7.838;2023-01-29T13:10:10;99224.47;;;3.28;63.85
54936;BME280;40838;50.676;7.838;2023-01-29T13:12:47;99213.84;;;1.62;70.52
54936;BME280;40838;50.676;7.838;2023-01-29T13:15:21;99208.41;;;1.15;76.13
54936;BME280;40838;50.676;7.838;2023-01-29T13:17:53;99204.91;;;1.49;74.15
54936;BME280;40838;50.676;7.838;2023-01-29T13:20:25;99201.09;;;2.40;69.99
54936;BME280;40838;50.676;7.838;2023-01-29T13:22:57;99184.78;;;3.16;65.06
54936;BME280;40838;50.676;7.838;2023-01-29T13:25:25;99193.75;;;3.02;64.17
54936;BME280;40838;50.676;7.838;2023-01-29T13:27:52;99198.03;;;2.90;64.09
54936;BME280;40838;50.676;7.838;2023-01-29T13:30:24;99201.47;;;2.37;65.10
54936;BME280;40838;50.676;7.838;2023-01-29T13:32:52;99207.34;;;0.75;71.83
54936;BME280;40838;50.676;7.838;2023-01-29T13:35:21;99203.34;;;1.68;71.28
54936;BME280;40838;50.676;7.838;2023-01-29T13:37:50;99196.59;;;2.07;66.09